Change the Weather History Date:

Monday, February 10, 2014

  Actual Average (KIAD) Record (KIAD)
Temperature  
Mean Temperature 28 °F 35 °F  
Max Temperature 33 °F 45 °F 63 °F (1990)
Min Temperature 23 °F 25 °F -10 °F (1979)
Degree Days  
Heating Degree Days 37 30  
Month to date heating degree days 305  
Since 1 July heating degree days 3089  
Cooling Degree Days 0 0  
Month to date cooling degree days 0  
Year to date cooling degree days 0  
Moisture  
Dew Point 17 °F    
Average Humidity 61    
Maximum Humidity 75    
Minimum Humidity 48    
Precipitation  
Precipitation 0.00 in 0.10 in 0.65 in (1970)
Month to date precipitation 0.99  
Year to date precipitation 3.67  
Snow  
Snow 0.00 in 0.30 in 9.30 in (2010)
Month to date snowfall 3.1  
Since 1 July snowfall 14.4  
Snow Depth -    
Sea Level Pressure  
Sea Level Pressure 30.22 in    
Wind  
Wind Speed 10 mph (North)    
Max Wind Speed 20 mph    
Max Gust Speed 25 mph    
Visibility 10 miles    
Events      
T = Trace of Precipitation, MM = Missing Value Source: NWS Daily Summary

Daily Weather History Graph

Daily Weather History Graph

Search for Another Location

Airport or City:

Trip Planner

Search our weather history database for the weather conditions in past years. The results will help you decide how hot, cold, wet, or windy it might be!

Date:

Astronomy

Feb. 10, 2014 Rise Set
Actual Time 7:07 AM EST 5:41 PM EST
Civil Twilight 6:40 AM EST 6:09 PM EST
Nautical Twilight 6:08 AM EST 6:40 PM EST
Astronomical Twilight 5:37 AM EST 7:12 PM EST
Moon 2:09 PM EST (2/10) 3:58 AM EST (2/10)
Length of Visible Light 11h 29m
Length of Day
10h 34m
Waxing Gibbous, 84% of the Moon is Illuminated
Feb 10
Waxing Gibbous
Feb 14
Full
Feb 22
Last Quarter
Mar 1
New
Mar 8
First Quarter

Hourly Weather History & Observations

Time (EST) Temp. Windchill Dew Point Humidity Pressure Visibility Wind Dir Wind Speed Gust Speed Precip Events Conditions
12:15 AM 32.0 °F 25.6 °F 24.8 °F 75% 30.06 in 10.0 mi NW 6.9 mph - N/A   Scattered Clouds
12:35 AM 33.8 °F 25.3 °F 24.8 °F 70% 30.07 in 10.0 mi NNW 11.5 mph 17.3 mph N/A   Scattered Clouds
12:55 AM 32.0 °F 20.5 °F 23.0 °F 69% 30.07 in 10.0 mi NNW 18.4 mph 25.3 mph N/A   Scattered Clouds
1:15 AM 32.0 °F 20.8 °F 23.0 °F 69% 30.06 in 10.0 mi NNW 17.3 mph - N/A   Clear
1:35 AM 32.0 °F 20.5 °F 21.2 °F 64% 30.07 in 10.0 mi NNW 18.4 mph 24.2 mph N/A   Clear
1:55 AM 32.0 °F 26.4 °F 21.2 °F 64% 30.09 in 10.0 mi North 5.8 mph - N/A   Clear
2:15 AM 32.0 °F 22.5 °F 21.2 °F 64% 30.10 in 10.0 mi NNW 12.7 mph - N/A   Clear
2:35 AM 30.2 °F 21.3 °F 21.2 °F 69% 30.10 in 10.0 mi NNW 10.4 mph 16.1 mph N/A   Clear
2:55 AM 30.2 °F 17.8 °F 21.2 °F 69% 30.10 in 10.0 mi NNW 19.6 mph 25.3 mph N/A   Clear
3:15 AM 30.2 °F 19.3 °F 19.4 °F 64% 30.11 in 10.0 mi NNW 15.0 mph 24.2 mph N/A   Clear
3:35 AM 30.2 °F 20.2 °F 19.4 °F 64% 30.12 in 10.0 mi North 12.7 mph - N/A   Clear
3:55 AM 30.2 °F 21.3 °F 19.4 °F 64% 30.12 in 10.0 mi North 10.4 mph 16.1 mph N/A   Clear
4:15 AM 28.4 °F 16.6 °F 19.4 °F 69% 30.13 in 10.0 mi North 16.1 mph - N/A   Clear
4:35 AM 28.4 °F 17.0 °F 19.4 °F 69% 30.15 in 10.0 mi North 15.0 mph - N/A   Clear
4:55 AM 26.6 °F 17.5 °F 19.4 °F 74% 30.15 in 10.0 mi NNE 9.2 mph - N/A   Clear
5:15 AM 26.6 °F 18.2 °F 17.6 °F 69% 30.16 in 10.0 mi North 8.1 mph - N/A   Clear
5:35 AM 26.6 °F 15.7 °F 17.6 °F 69% 30.17 in 10.0 mi North 12.7 mph 16.1 mph N/A   Clear
5:55 AM 26.6 °F 18.2 °F 17.6 °F 69% 30.18 in 10.0 mi North 8.1 mph - N/A   Clear
6:15 AM 26.6 °F 20.0 °F 17.6 °F 69% 30.19 in 10.0 mi NE 5.8 mph - N/A   Clear
6:35 AM 24.8 °F 15.3 °F 17.6 °F 74% 30.20 in 10.0 mi NE 9.2 mph - N/A   Clear
6:55 AM 26.6 °F 17.5 °F 15.8 °F 64% 30.21 in 10.0 mi NNE 9.2 mph 16.1 mph N/A   Clear
7:15 AM 26.6 °F 17.5 °F 15.8 °F 64% 30.21 in 10.0 mi NNE 9.2 mph - N/A   Clear
7:35 AM 24.8 °F 16.1 °F 15.8 °F 69% 30.21 in 10.0 mi NNE 8.1 mph - N/A   Clear
7:55 AM 24.8 °F 16.1 °F 17.6 °F 74% 30.21 in 10.0 mi NNE 8.1 mph - N/A   Clear
8:15 AM 24.8 °F 14.6 °F 15.8 °F 69% 30.22 in 10.0 mi North 10.4 mph - N/A   Clear
8:35 AM 24.8 °F 13.4 °F 15.8 °F 69% 30.23 in 10.0 mi North 12.7 mph - N/A   Clear
8:55 AM 26.6 °F 17.5 °F 15.8 °F 64% 30.24 in 10.0 mi North 9.2 mph - N/A   Clear
9:15 AM 26.6 °F 16.8 °F 15.8 °F 64% 30.25 in 10.0 mi North 10.4 mph - N/A   Clear
9:35 AM 28.4 °F 20.4 °F 17.6 °F 64% 30.24 in 10.0 mi NNE 8.1 mph 16.1 mph N/A   Clear
9:55 AM 28.4 °F 18.0 °F 17.6 °F 64% 30.24 in 10.0 mi North 12.7 mph 18.4 mph N/A   Clear
10:15 AM 28.4 °F 18.5 °F 17.6 °F 64% 30.26 in 10.0 mi North 11.5 mph - N/A   Clear
10:35 AM 30.2 °F 23.4 °F 17.6 °F 60% 30.26 in 10.0 mi North 6.9 mph 17.3 mph N/A   Clear
10:55 AM 30.2 °F 22.6 °F 17.6 °F 60% 30.26 in 10.0 mi North 8.1 mph 16.1 mph N/A   Clear
11:15 AM 30.2 °F 21.3 °F 17.6 °F 60% 30.25 in 10.0 mi North 10.4 mph - N/A   Clear
11:35 AM 30.2 °F 21.9 °F 17.6 °F 60% 30.26 in 10.0 mi North 9.2 mph - N/A   Clear
11:55 AM 30.2 °F 20.8 °F 17.6 °F 60% 30.25 in 10.0 mi NW 11.5 mph 17.3 mph N/A   Clear
12:15 PM 30.2 °F 21.9 °F 17.6 °F 60% 30.25 in 10.0 mi NNW 9.2 mph 16.1 mph N/A   Clear
12:35 PM 30.2 °F 21.3 °F 17.6 °F 60% 30.24 in 10.0 mi NNW 10.4 mph - N/A   Clear
12:55 PM 30.2 °F 23.4 °F 17.6 °F 60% 30.23 in 10.0 mi NNW 6.9 mph - N/A   Clear
1:15 PM 32.0 °F 24.2 °F 17.6 °F 55% 30.22 in 10.0 mi NNW 9.2 mph 16.1 mph N/A   Clear
1:35 PM 30.2 °F 23.4 °F 17.6 °F 60% 30.21 in 10.0 mi North 6.9 mph - N/A   Clear
1:55 PM 32.0 °F 24.8 °F 17.6 °F 55% 30.21 in 10.0 mi NW 8.1 mph - N/A   Clear
2:15 PM 32.0 °F 24.8 °F 17.6 °F 55% 30.20 in 10.0 mi NNW 8.1 mph 16.1 mph N/A   Clear
2:35 PM 32.0 °F 24.8 °F 17.6 °F 55% 30.21 in 10.0 mi North 8.1 mph - N/A   Scattered Clouds
2:55 PM 32.0 °F 26.4 °F 17.6 °F 55% 30.21 in 10.0 mi NNE 5.8 mph - N/A   Scattered Clouds
3:15 PM 32.0 °F 25.6 °F 17.6 °F 55% 30.20 in 10.0 mi NNE 6.9 mph - N/A   Clear
3:35 PM 32.0 °F 26.4 °F 17.6 °F 55% 30.21 in 10.0 mi NNW 5.8 mph - N/A   Clear
3:55 PM 32.0 °F 25.6 °F 15.8 °F 51% 30.21 in 10.0 mi NNW 6.9 mph - N/A   Clear
4:15 PM 32.0 °F 24.2 °F 15.8 °F 51% 30.21 in 10.0 mi North 9.2 mph - N/A   Clear
4:35 PM 32.0 °F 27.5 °F 14.0 °F 48% 30.21 in 10.0 mi NNE 4.6 mph - N/A   Clear
4:55 PM 32.0 °F 25.6 °F 14.0 °F 48% 30.22 in 10.0 mi NNE 6.9 mph - N/A   Clear
5:15 PM 32.0 °F 25.6 °F 14.0 °F 48% 30.23 in 10.0 mi NNE 6.9 mph - N/A   Clear
5:35 PM 30.2 °F 24.3 °F 14.0 °F 51% 30.23 in 10.0 mi North 5.8 mph - N/A   Clear
5:55 PM 30.2 °F 25.4 °F 14.0 °F 51% 30.24 in 10.0 mi North 4.6 mph - N/A   Clear
6:15 PM 30.2 °F 22.6 °F 14.0 °F 51% 30.25 in 10.0 mi NNE 8.1 mph - N/A   Clear
6:35 PM 28.4 °F 22.2 °F 14.0 °F 55% 30.26 in 10.0 mi NNE 5.8 mph - N/A   Clear
6:55 PM 28.4 °F 23.3 °F 14.0 °F 55% 30.27 in 10.0 mi NNE 4.6 mph - N/A   Clear
7:15 PM 28.4 °F - 14.0 °F 55% 30.28 in 10.0 mi Calm Calm - N/A   Clear
7:35 PM 28.4 °F 24.6 °F 14.0 °F 55% 30.28 in 10.0 mi NE 3.5 mph - N/A   Clear
7:55 PM 28.4 °F 20.4 °F 14.0 °F 55% 30.29 in 10.0 mi NNE 8.1 mph - N/A   Clear
8:15 PM 26.6 °F 21.2 °F 12.2 °F 55% 30.30 in 10.0 mi NNE 4.6 mph - N/A   Clear
8:35 PM 26.6 °F 21.2 °F 12.2 °F 55% 30.30 in 10.0 mi North 4.6 mph - N/A   Clear
8:55 PM 26.6 °F 18.2 °F 14.0 °F 59% 30.31 in 10.0 mi North 8.1 mph - N/A   Clear
9:15 PM 24.8 °F 16.9 °F 14.0 °F 64% 30.31 in 10.0 mi North 6.9 mph - N/A   Clear
9:35 PM 24.8 °F 14.6 °F 12.2 °F 59% 30.31 in 10.0 mi NNW 10.4 mph - N/A   Clear
9:55 PM 24.8 °F 16.1 °F 12.2 °F 59% 30.32 in 10.0 mi North 8.1 mph - N/A   Clear
10:15 PM 23.0 °F 18.4 °F 12.2 °F 63% 30.33 in 10.0 mi North 3.5 mph - N/A   Clear
10:35 PM 23.0 °F 13.1 °F 12.2 °F 63% 30.34 in 10.0 mi NNW 9.2 mph - N/A   Clear
10:55 PM 23.0 °F - 12.2 °F 63% 30.34 in 10.0 mi Calm Calm - N/A   Clear
11:15 PM 23.0 °F - 12.2 °F 63% 30.35 in 10.0 mi Calm Calm - N/A   Clear
11:35 PM 23.0 °F 18.4 °F 12.2 °F 63% 30.35 in 10.0 mi ENE 3.5 mph - N/A   Clear
11:55 PM 23.0 °F 18.4 °F 12.2 °F 63% 30.35 in 10.0 mi NE 3.5 mph - N/A   Clear